createdAt,value
2022-11-18T00:00:45.604Z,16.73
2022-11-18T00:02:18.356Z,17.98
2022-11-18T00:03:50.923Z,14.75
2022-11-18T00:05:23.684Z,17.63
2022-11-18T00:06:56.429Z,22.27
2022-11-18T00:08:29.663Z,17.80
2022-11-18T00:10:02.425Z,18.45
2022-11-18T00:11:52.938Z,18.50
2022-11-18T00:13:43.455Z,16.08
2022-11-18T00:15:16.220Z,17.13
2022-11-18T00:16:50.255Z,19.42
2022-11-18T00:18:22.991Z,20.17
2022-11-18T00:19:55.948Z,21.00
2022-11-18T00:21:27.710Z,19.75
2022-11-18T00:23:00.728Z,18.48
2022-11-18T00:24:35.136Z,21.55
2022-11-18T00:26:09.807Z,18.80
2022-11-18T00:27:42.523Z,20.00
2022-11-18T00:29:15.047Z,24.75
2022-11-18T00:30:47.897Z,26.27
2022-11-18T00:32:20.629Z,27.23
2022-11-18T00:33:52.361Z,25.20
2022-11-18T00:35:25.114Z,31.70
2022-11-18T00:36:57.874Z,25.13
2022-11-18T00:38:29.811Z,28.50
2022-11-18T00:40:04.341Z,27.30
2022-11-18T00:41:54.401Z,27.77
2022-11-18T00:43:27.243Z,25.38
2022-11-18T00:44:59.011Z,25.02
2022-11-18T00:46:31.752Z,25.15
2022-11-18T00:48:03.824Z,23.23
2022-11-18T00:49:36.618Z,22.83
2022-11-18T00:51:12.616Z,26.67
2022-11-18T00:52:45.367Z,26.33
2022-11-18T00:54:18.414Z,29.80
2022-11-18T00:55:52.917Z,26.27
2022-11-18T00:57:25.638Z,34.47
2022-11-18T00:58:58.391Z,40.30
2022-11-18T01:00:31.140Z,37.90
2022-11-18T01:02:03.857Z,38.00
2022-11-18T01:03:35.715Z,43.28
2022-11-18T01:05:09.127Z,38.95
2022-11-18T01:06:41.441Z,43.53
2022-11-18T01:08:14.724Z,39.25
2022-11-18T01:09:47.474Z,35.80
2022-11-18T01:11:50.516Z,34.42
2022-11-18T01:13:23.759Z,30.70
2022-11-18T01:14:56.498Z,33.78
2022-11-18T01:16:30.760Z,33.90
2022-11-18T01:18:03.488Z,30.10
2022-11-18T01:19:36.360Z,31.60
2022-11-18T01:21:09.157Z,32.80
2022-11-18T01:22:41.880Z,32.45
2022-11-18T01:24:14.643Z,26.75
2022-11-18T01:25:49.654Z,25.77
2022-11-18T01:27:23.722Z,25.80
2022-11-18T01:28:57.188Z,27.10
2022-11-18T01:30:29.909Z,26.27
2022-11-18T01:32:23.520Z,27.73
2022-11-18T01:33:55.363Z,20.55
2022-11-18T01:35:28.097Z,22.85
2022-11-18T01:36:59.871Z,18.02
2022-11-18T01:38:32.626Z,18.65
2022-11-18T01:40:06.463Z,17.75
2022-11-18T01:41:38.259Z,21.00
2022-11-18T01:43:15.665Z,18.00
2022-11-18T01:45:09.476Z,15.20
2022-11-18T01:46:42.402Z,18.25
2022-11-18T01:48:20.418Z,29.55
2022-11-18T01:49:53.640Z,23.35
2022-11-18T01:51:31.921Z,101.50
2022-11-18T01:53:09.428Z,18.98
2022-11-18T01:54:46.635Z,21.58
2022-11-18T01:56:24.620Z,23.45
2022-11-18T01:58:04.523Z,19.15
2022-11-18T01:59:41.467Z,22.98
2022-11-18T02:01:14.590Z,22.80
2022-11-18T02:02:47.480Z,21.55
2022-11-18T02:04:20.195Z,18.73
2022-11-18T02:05:54.579Z,23.00
2022-11-18T02:07:26.878Z,21.90
2022-11-18T02:09:00.106Z,19.83
2022-11-18T02:10:33.105Z,20.02
2022-11-18T02:12:06.258Z,20.13
2022-11-18T02:13:39.069Z,17.30
2022-11-18T02:15:12.387Z,20.55
2022-11-18T02:17:03.520Z,18.98
2022-11-18T02:18:46.998Z,24.80
2022-11-18T02:20:32.698Z,19.48
2022-11-18T02:22:19.564Z,20.50
2022-11-18T02:24:18.156Z,19.30
2022-11-18T02:26:11.030Z,24.30
2022-11-18T02:28:20.410Z,24.65
2022-11-18T02:29:59.523Z,17.02
2022-11-18T02:31:35.363Z,18.08
2022-11-18T02:33:12.352Z,20.10
2022-11-18T02:34:50.934Z,20.27
2022-11-18T02:36:28.882Z,14.07
2022-11-18T02:38:05.800Z,21.42
2022-11-18T02:39:44.993Z,15.32
2022-11-18T02:41:21.070Z,15.70
2022-11-18T02:42:59.046Z,17.25
2022-11-18T02:44:31.598Z,17.33
2022-11-18T02:46:09.902Z,17.52
2022-11-18T02:47:45.915Z,18.20
2022-11-18T02:49:22.261Z,18.77
2022-11-18T02:50:56.564Z,20.52
2022-11-18T02:52:29.650Z,20.75
2022-11-18T02:54:06.412Z,20.30
2022-11-18T02:55:41.448Z,19.83
2022-11-18T02:57:16.245Z,19.77
2022-11-18T02:58:48.988Z,24.38
2022-11-18T03:00:20.791Z,24.25
2022-11-18T03:01:55.321Z,15.00
2022-11-18T03:03:30.116Z,16.73
2022-11-18T03:05:02.839Z,14.10
2022-11-18T03:06:38.700Z,11.30
2022-11-18T03:08:17.818Z,10.05
2022-11-18T03:09:53.551Z,9.40
2022-11-18T03:11:29.264Z,6.88
2022-11-18T03:13:10.514Z,7.20
2022-11-18T03:14:52.315Z,5.68
2022-11-18T03:16:30.274Z,5.75
2022-11-18T03:18:15.295Z,5.47
2022-11-18T03:20:00.284Z,4.90
2022-11-18T03:21:37.571Z,3.67
2022-11-18T03:23:15.550Z,4.22
2022-11-18T03:24:55.895Z,3.75
2022-11-18T03:26:32.703Z,4.05
2022-11-18T03:28:11.581Z,7.68
2022-11-18T03:29:47.101Z,10.15
2022-11-18T03:31:24.079Z,15.00
2022-11-18T03:33:01.473Z,81.30
2022-11-18T03:34:39.168Z,19.27
2022-11-18T03:36:15.181Z,17.63
2022-11-18T03:37:51.387Z,13.57
2022-11-18T03:39:26.249Z,18.42
2022-11-18T03:41:03.194Z,17.75
2022-11-18T03:42:40.438Z,20.10
2022-11-18T03:44:18.955Z,18.77
2022-11-18T03:45:55.994Z,18.73
2022-11-18T03:47:33.251Z,18.67
2022-11-18T03:49:08.410Z,18.40
2022-11-18T03:50:47.430Z,18.80
2022-11-18T03:52:24.324Z,27.08
2022-11-18T03:53:59.800Z,19.27
2022-11-18T03:55:38.404Z,17.80
2022-11-18T03:57:16.458Z,22.77
2022-11-18T03:58:54.333Z,19.58
2022-11-18T04:00:30.762Z,18.05
2022-11-18T04:02:09.741Z,19.70
2022-11-18T04:03:43.002Z,19.52
2022-11-18T04:05:17.556Z,19.35
2022-11-18T04:06:55.561Z,18.15
2022-11-18T04:08:33.390Z,16.73
2022-11-18T04:10:12.834Z,15.90
2022-11-18T04:12:02.769Z,17.95
2022-11-18T04:13:38.237Z,16.00
2022-11-18T04:15:11.724Z,15.43
2022-11-18T04:16:45.670Z,14.57
2022-11-18T04:18:18.387Z,18.05
2022-11-18T04:19:51.176Z,16.75
2022-11-18T04:21:23.936Z,18.13
2022-11-18T04:22:57.991Z,18.60
2022-11-18T04:24:30.718Z,17.60
2022-11-18T04:26:03.459Z,21.40
2022-11-18T04:27:35.282Z,19.30
2022-11-18T04:29:08.265Z,19.65
2022-11-18T04:30:40.983Z,20.05
2022-11-18T04:32:13.724Z,16.88
2022-11-18T04:33:45.515Z,21.75
2022-11-18T04:35:18.350Z,19.73
2022-11-18T04:36:51.069Z,18.33
2022-11-18T04:38:25.150Z,18.67
2022-11-18T04:39:56.881Z,19.77
2022-11-18T04:41:43.558Z,19.60
2022-11-18T04:43:16.258Z,16.48
2022-11-18T04:44:49.007Z,18.10
2022-11-18T04:46:21.864Z,16.70
2022-11-18T04:48:00.313Z,17.98
2022-11-18T04:49:36.754Z,17.05
2022-11-18T04:51:08.512Z,16.67
2022-11-18T04:52:41.238Z,18.58
2022-11-18T04:54:15.309Z,19.10
2022-11-18T04:55:48.036Z,18.15
2022-11-18T04:57:19.987Z,20.25
2022-11-18T04:58:52.756Z,20.20
2022-11-18T05:00:25.485Z,18.75
2022-11-18T05:02:00.803Z,19.88
2022-11-18T05:03:33.519Z,18.65
2022-11-18T05:05:07.091Z,19.75
2022-11-18T05:06:38.845Z,17.23
2022-11-18T05:08:11.563Z,18.90
2022-11-18T05:09:45.671Z,20.50
2022-11-18T05:11:36.055Z,16.75
2022-11-18T05:13:07.797Z,18.15
2022-11-18T05:14:44.008Z,21.58
2022-11-18T05:16:19.009Z,22.52
2022-11-18T05:17:52.437Z,19.67
2022-11-18T05:19:24.479Z,18.45
2022-11-18T05:20:57.183Z,22.38
2022-11-18T05:22:29.895Z,19.45
2022-11-18T05:24:01.944Z,22.25
2022-11-18T05:25:36.825Z,21.23
2022-11-18T05:27:09.556Z,19.38
2022-11-18T05:28:42.304Z,18.63
2022-11-18T05:30:15.375Z,18.17
2022-11-18T05:31:47.999Z,18.13
2022-11-18T05:33:20.726Z,16.83
2022-11-18T05:34:53.476Z,16.70
2022-11-18T05:36:26.690Z,17.55
2022-11-18T05:37:59.414Z,19.20
2022-11-18T05:39:33.632Z,16.65
2022-11-18T05:41:08.360Z,19.70
2022-11-18T05:42:58.757Z,17.27
2022-11-18T05:44:30.502Z,21.45
2022-11-18T05:46:03.695Z,16.75
2022-11-18T05:47:56.391Z,19.50
2022-11-18T05:49:29.122Z,18.15
2022-11-18T05:51:01.823Z,20.95
2022-11-18T05:52:34.549Z,20.38
2022-11-18T05:54:10.520Z,17.70
2022-11-18T05:55:48.927Z,22.98
2022-11-18T05:57:22.958Z,23.80
2022-11-18T05:58:55.941Z,22.00
2022-11-18T06:00:28.111Z,22.13
2022-11-18T06:02:04.056Z,24.70
2022-11-18T06:03:39.378Z,23.10
2022-11-18T06:05:13.174Z,23.67
2022-11-18T06:06:48.168Z,22.88
2022-11-18T06:08:22.163Z,21.13
2022-11-18T06:10:05.223Z,21.77
2022-11-18T06:11:41.450Z,24.00
2022-11-18T06:13:18.650Z,20.63
2022-11-18T06:14:55.240Z,25.23
2022-11-18T06:16:35.328Z,20.52
2022-11-18T06:18:17.280Z,22.80
2022-11-18T06:19:50.256Z,18.48
2022-11-18T06:21:23.360Z,20.10
2022-11-18T06:22:58.208Z,19.75
2022-11-18T06:24:31.118Z,19.58
2022-11-18T06:26:04.000Z,20.85
2022-11-18T06:27:36.804Z,21.48
2022-11-18T06:29:13.610Z,23.77
2022-11-18T06:30:46.474Z,22.73
2022-11-18T06:32:19.202Z,22.33
2022-11-18T06:33:51.914Z,19.48
2022-11-18T06:35:24.752Z,20.08
2022-11-18T06:36:57.502Z,17.92
2022-11-18T06:38:30.416Z,16.75
2022-11-18T06:40:03.266Z,16.45
2022-11-18T06:41:36.322Z,20.52
2022-11-18T06:43:27.407Z,18.45
2022-11-18T06:45:01.957Z,16.52
2022-11-18T06:46:52.401Z,17.38
2022-11-18T06:48:25.123Z,16.58
2022-11-18T06:49:57.824Z,16.65
2022-11-18T06:51:30.877Z,13.85
2022-11-18T06:53:03.577Z,11.15
2022-11-18T06:54:36.297Z,11.68
2022-11-18T06:56:10.609Z,11.82
2022-11-18T06:57:43.346Z,11.75
2022-11-18T06:59:22.105Z,11.60
2022-11-18T07:00:56.395Z,11.63
2022-11-18T07:02:29.270Z,13.07
2022-11-18T07:04:03.261Z,10.55
2022-11-18T07:05:35.986Z,12.95
2022-11-18T07:07:09.183Z,11.05
2022-11-18T07:08:42.941Z,10.00
2022-11-18T07:10:15.905Z,9.73
2022-11-18T07:11:48.628Z,8.20
2022-11-18T07:13:20.366Z,6.30
2022-11-18T07:14:53.066Z,6.95
2022-11-18T07:16:28.230Z,9.68
2022-11-18T07:18:01.007Z,8.75
2022-11-18T07:19:35.989Z,8.93
2022-11-18T07:21:11.350Z,8.38
2022-11-18T07:22:44.064Z,6.38
2022-11-18T07:24:17.235Z,5.72
2022-11-18T07:25:49.967Z,5.60
2022-11-18T07:27:22.692Z,6.35
2022-11-18T07:28:55.383Z,5.13
2022-11-18T07:30:28.132Z,5.30
2022-11-18T07:32:02.411Z,4.47
2022-11-18T07:33:35.739Z,4.63
2022-11-18T07:35:09.164Z,4.10
2022-11-18T07:36:41.915Z,5.38
2022-11-18T07:38:14.636Z,3.70
2022-11-18T07:39:47.344Z,4.05
2022-11-18T07:41:21.731Z,6.18
2022-11-18T07:42:55.044Z,4.47
2022-11-18T07:44:27.748Z,5.35
2022-11-18T07:46:00.559Z,3.05
2022-11-18T07:47:36.469Z,2.38
2022-11-18T07:49:09.777Z,2.42
2022-11-18T07:50:47.015Z,1.80
2022-11-18T07:52:20.040Z,1.90
2022-11-18T07:53:52.919Z,2.75
2022-11-18T07:55:30.864Z,2.35
2022-11-18T07:57:04.917Z,1.92
2022-11-18T07:58:38.503Z,2.08
2022-11-18T08:00:12.296Z,1.10
2022-11-18T08:01:45.118Z,1.65
2022-11-18T08:03:18.637Z,1.65
2022-11-18T08:04:51.438Z,1.48
2022-11-18T08:06:24.575Z,0.80
2022-11-18T08:07:58.099Z,1.13
2022-11-18T08:09:30.820Z,0.80
2022-11-18T08:11:05.971Z,1.00
2022-11-18T08:12:38.727Z,0.90
2022-11-18T08:14:11.434Z,1.48
2022-11-18T08:15:44.774Z,1.00
2022-11-18T08:17:17.522Z,2.10
2022-11-18T08:18:52.058Z,0.80
2022-11-18T08:20:27.145Z,0.90
2022-11-18T08:21:59.855Z,1.15
2022-11-18T08:23:37.387Z,1.08
2022-11-18T08:25:13.613Z,0.80
2022-11-18T08:26:46.334Z,1.67
2022-11-18T08:28:19.123Z,1.90
2022-11-18T08:29:51.882Z,1.33
2022-11-18T08:31:27.385Z,1.17
2022-11-18T08:33:00.108Z,0.80
2022-11-18T08:34:34.231Z,1.52
2022-11-18T08:36:08.567Z,6.65
2022-11-18T08:37:41.398Z,4.78
2022-11-18T08:39:15.132Z,2.67
2022-11-18T08:40:49.035Z,5.60
2022-11-18T08:42:24.517Z,8.07
2022-11-18T08:43:56.800Z,6.38
2022-11-18T08:45:29.568Z,4.30
2022-11-18T08:47:02.654Z,1.92
2022-11-18T08:48:35.437Z,1.98
2022-11-18T08:50:11.959Z,1.55
2022-11-18T08:51:44.889Z,1.70
2022-11-18T08:53:17.658Z,2.65
2022-11-18T08:54:50.369Z,1.33
2022-11-18T08:56:24.656Z,1.42
2022-11-18T08:57:57.362Z,1.70
2022-11-18T08:59:30.184Z,4.38
2022-11-18T09:01:06.145Z,6.32
2022-11-18T09:02:38.924Z,7.50
2022-11-18T09:04:12.244Z,5.18
2022-11-18T09:05:46.351Z,3.67
2022-11-18T09:07:19.229Z,2.67
2022-11-18T09:08:52.206Z,5.93
2022-11-18T09:10:24.928Z,5.18
2022-11-18T09:11:57.653Z,3.63
2022-11-18T09:15:24.023Z,6.28
2022-11-18T09:16:56.726Z,3.28
2022-11-18T09:18:30.119Z,1.42
2022-11-18T09:20:02.827Z,2.83
2022-11-18T09:21:40.826Z,2.17
2022-11-18T09:23:13.755Z,1.42
2022-11-18T09:24:46.465Z,1.63
2022-11-18T09:26:22.585Z,2.42
2022-11-18T09:27:55.746Z,1.88
2022-11-18T09:29:28.466Z,2.95
2022-11-18T09:31:04.363Z,5.03
2022-11-18T09:32:37.115Z,2.67
2022-11-18T09:34:10.250Z,2.00
2022-11-18T09:35:43.224Z,2.53
2022-11-18T09:37:17.312Z,2.50
2022-11-18T09:38:53.221Z,3.55
2022-11-18T09:40:26.342Z,2.00
2022-11-18T09:42:14.519Z,1.88
2022-11-18T09:43:58.275Z,1.48
2022-11-18T09:45:38.026Z,3.15
2022-11-18T09:47:21.654Z,1.30
2022-11-18T09:49:13.809Z,2.33
2022-11-18T09:50:50.880Z,3.10
2022-11-18T09:52:34.294Z,3.70
2022-11-18T09:54:13.273Z,2.90
2022-11-18T09:55:46.682Z,3.03
2022-11-18T09:57:22.076Z,2.72
2022-11-18T09:58:55.304Z,5.20
2022-11-18T10:00:30.685Z,3.47
2022-11-18T10:02:23.500Z,7.07
2022-11-18T10:03:56.547Z,6.35
2022-11-18T10:05:32.741Z,5.13
2022-11-18T10:07:14.253Z,4.97
2022-11-18T10:08:59.844Z,2.90
2022-11-18T10:10:42.665Z,3.38
2022-11-18T10:12:24.675Z,3.63
2022-11-18T10:14:10.995Z,4.38
2022-11-18T10:15:53.188Z,7.72
2022-11-18T10:17:37.755Z,12.83
2022-11-18T10:19:25.306Z,11.25
2022-11-18T10:21:04.442Z,5.22
2022-11-18T10:22:47.233Z,5.17
2022-11-18T10:24:23.490Z,6.32
2022-11-18T10:25:56.560Z,5.15
2022-11-18T10:27:40.490Z,4.43
2022-11-18T10:29:13.297Z,2.80
2022-11-18T10:30:46.044Z,5.67
2022-11-18T10:32:19.090Z,3.33
2022-11-18T10:33:59.900Z,3.35
2022-11-18T10:35:34.603Z,4.13
2022-11-18T10:37:13.091Z,3.28
2022-11-18T10:38:49.681Z,2.20
2022-11-18T10:40:29.496Z,1.83
2022-11-18T10:42:05.436Z,3.37
2022-11-18T10:43:50.083Z,2.00
2022-11-18T10:45:27.667Z,2.17
2022-11-18T10:47:26.100Z,2.60
2022-11-18T10:49:16.316Z,4.23
2022-11-18T10:52:53.271Z,3.63
2022-11-18T10:54:26.014Z,6.47
2022-11-18T10:56:02.387Z,3.03
2022-11-18T10:57:39.012Z,5.87
2022-11-18T10:59:25.012Z,2.80
2022-11-18T11:01:07.519Z,3.27
2022-11-18T11:01:48.059Z,4.60
2022-11-18T11:02:42.143Z,2.38
2022-11-18T11:04:23.325Z,2.13
2022-11-18T11:06:31.564Z,2.33
2022-11-18T11:08:34.673Z,2.33
2022-11-18T11:10:10.169Z,3.20
2022-11-18T11:11:58.788Z,4.13
2022-11-18T11:13:33.423Z,1.90
2022-11-18T11:15:11.495Z,2.20
2022-11-18T11:16:49.715Z,2.00
2022-11-18T11:18:42.996Z,2.93
2022-11-18T11:20:21.356Z,2.90
2022-11-18T11:21:54.260Z,3.40
2022-11-18T11:23:27.584Z,3.00
2022-11-18T11:25:00.434Z,2.83
2022-11-18T11:28:38.146Z,4.30
2022-11-18T11:30:29.011Z,2.80
2022-11-18T11:32:11.875Z,3.87
2022-11-18T11:33:53.766Z,3.37
2022-11-18T11:35:31.036Z,4.43
2022-11-18T11:37:12.619Z,3.07
2022-11-18T11:39:01.339Z,2.87
2022-11-18T11:40:41.910Z,2.90
2022-11-18T11:42:25.855Z,3.47
2022-11-18T11:44:20.627Z,2.53
2022-11-18T11:46:10.240Z,3.23
2022-11-18T11:47:56.784Z,2.57
2022-11-18T11:49:33.612Z,2.30
2022-11-18T11:51:17.084Z,2.13
2022-11-18T11:53:05.133Z,1.90
2022-11-18T11:54:47.341Z,2.83
2022-11-18T11:56:27.967Z,2.00
2022-11-18T11:58:10.040Z,3.33
2022-11-18T11:59:53.199Z,4.17
2022-11-18T12:01:34.927Z,2.37
2022-11-18T12:03:22.185Z,4.60
2022-11-18T12:04:58.722Z,3.03
2022-11-18T12:06:31.579Z,3.10
2022-11-18T12:08:07.839Z,3.87
2022-11-18T12:10:07.694Z,4.40
2022-11-18T12:11:48.095Z,3.13
2022-11-18T12:13:34.804Z,3.50
2022-11-18T12:15:26.466Z,2.73
2022-11-18T12:17:08.003Z,2.70
2022-11-18T12:18:44.446Z,3.57
2022-11-18T12:20:40.556Z,4.07
2022-11-18T12:22:13.890Z,4.90
2022-11-18T12:24:22.536Z,3.47
2022-11-18T12:26:09.369Z,3.47
2022-11-18T12:28:00.520Z,2.57
2022-11-18T12:29:41.952Z,3.13
2022-11-18T12:31:35.340Z,4.33
2022-11-18T12:33:16.429Z,3.30
2022-11-18T12:34:59.504Z,3.00
2022-11-18T12:36:33.943Z,2.90
2022-11-18T12:38:06.919Z,3.77
2022-11-18T12:39:50.227Z,4.37
2022-11-18T12:42:13.708Z,2.87
2022-11-18T12:44:07.806Z,3.63
2022-11-18T12:46:01.451Z,3.73
2022-11-18T12:47:57.993Z,4.37
2022-11-18T12:50:10.289Z,4.00
2022-11-18T12:51:44.234Z,4.03
2022-11-18T12:53:40.118Z,1.77
2022-11-18T12:55:17.259Z,1.83
2022-11-18T12:56:51.213Z,3.57
2022-11-18T12:58:27.192Z,2.20
2022-11-18T13:00:00.469Z,5.07
2022-11-18T13:01:35.301Z,2.43
2022-11-18T13:03:08.078Z,5.67
2022-11-18T13:04:45.817Z,2.67
2022-11-18T13:06:25.064Z,2.70
2022-11-18T13:08:14.739Z,4.43
2022-11-18T13:09:47.508Z,4.57
2022-11-18T13:11:38.579Z,3.07
2022-11-18T13:13:22.758Z,2.40
2022-11-18T13:15:15.055Z,3.30
2022-11-18T13:17:05.975Z,4.43
2022-11-18T13:18:49.461Z,5.13
2022-11-18T13:20:24.560Z,2.87
2022-11-18T13:22:16.200Z,5.97
2022-11-18T13:24:00.426Z,2.83
2022-11-18T13:25:33.461Z,3.33
2022-11-18T13:27:06.619Z,4.07
2022-11-18T13:28:45.978Z,4.67
2022-11-18T13:30:20.286Z,4.13
2022-11-18T13:32:01.799Z,2.43
2022-11-18T13:33:37.022Z,2.00
2022-11-18T13:35:15.184Z,6.90
2022-11-18T13:36:49.601Z,4.50
2022-11-18T13:38:28.364Z,3.10
2022-11-18T13:40:01.616Z,5.07
2022-11-18T13:41:36.317Z,5.00
2022-11-18T13:43:11.870Z,2.30
2022-11-18T13:44:47.757Z,5.47
2022-11-18T13:46:23.282Z,2.07
2022-11-18T13:48:01.515Z,2.23
2022-11-18T13:49:48.922Z,3.67
2022-11-18T13:51:24.327Z,4.43
2022-11-18T13:53:08.442Z,4.13
2022-11-18T13:54:41.874Z,1.87
2022-11-18T13:56:20.107Z,2.90
2022-11-18T13:58:03.190Z,4.63
2022-11-18T13:59:35.954Z,4.63
2022-11-18T14:01:16.218Z,4.10
2022-11-18T14:02:57.453Z,5.60
2022-11-18T14:04:32.790Z,3.77
2022-11-18T14:06:05.867Z,3.13
2022-11-18T14:07:39.547Z,3.90
2022-11-18T14:09:23.561Z,5.07
2022-11-18T14:10:56.938Z,3.87
2022-11-18T14:12:32.347Z,3.90
2022-11-18T14:14:05.122Z,4.00
2022-11-18T14:15:43.503Z,4.23
2022-11-18T14:17:19.512Z,5.03
2022-11-18T14:18:53.680Z,4.03
2022-11-18T14:20:27.541Z,3.53
2022-11-18T14:22:07.403Z,3.37
2022-11-18T14:23:45.066Z,4.50
2022-11-18T14:25:19.697Z,7.33
2022-11-18T14:26:52.412Z,6.23
2022-11-18T14:28:28.236Z,7.33
2022-11-18T14:30:01.012Z,6.73
2022-11-18T14:31:33.722Z,4.27
2022-11-18T14:33:21.927Z,4.07
2022-11-18T14:35:00.458Z,4.05
2022-11-18T14:36:33.222Z,3.97
2022-11-18T14:38:35.947Z,4.13
2022-11-18T14:40:06.682Z,3.53
2022-11-18T14:41:56.004Z,4.03
2022-11-18T14:43:29.065Z,3.77
2022-11-18T14:45:02.379Z,2.97
2022-11-18T14:46:36.158Z,3.20
2022-11-18T14:48:12.359Z,6.43
2022-11-18T14:49:45.089Z,6.13
2022-11-18T14:51:19.203Z,5.83
2022-11-18T14:52:51.931Z,3.27
2022-11-18T14:54:27.611Z,3.63
2022-11-18T14:56:01.263Z,2.00
2022-11-18T14:57:34.055Z,7.13
2022-11-18T14:59:06.889Z,1.67
2022-11-18T15:00:40.203Z,3.47
2022-11-18T15:02:15.923Z,4.53
2022-11-18T15:03:48.655Z,2.83
2022-11-18T15:05:21.389Z,4.25
2022-11-18T15:06:56.044Z,3.50
2022-11-18T15:08:28.791Z,3.83
2022-11-18T15:10:01.524Z,3.63
2022-11-18T15:11:34.448Z,5.55
2022-11-18T15:13:07.164Z,4.57
2022-11-18T15:14:39.876Z,3.08
2022-11-18T15:16:15.664Z,5.10
2022-11-18T15:17:52.637Z,4.22
2022-11-18T15:19:26.711Z,3.60
2022-11-18T15:20:59.439Z,3.07
2022-11-18T15:22:33.771Z,3.25
2022-11-18T15:24:06.832Z,3.00
2022-11-18T15:25:39.669Z,5.97
2022-11-18T15:27:12.420Z,4.75
2022-11-18T15:28:45.191Z,2.80
2022-11-18T15:30:18.306Z,6.00
2022-11-18T15:31:51.121Z,6.88
2022-11-18T15:33:23.868Z,8.43
2022-11-18T15:34:56.614Z,4.10
2022-11-18T15:36:29.354Z,5.53
2022-11-18T15:38:03.407Z,5.45
2022-11-18T15:39:36.144Z,3.88
2022-11-18T15:41:16.249Z,4.85
2022-11-18T15:42:52.054Z,3.20
2022-11-18T15:44:25.596Z,3.30
2022-11-18T15:45:58.891Z,4.13
2022-11-18T15:47:31.623Z,8.35
2022-11-18T15:49:04.497Z,5.00
2022-11-18T15:50:37.309Z,4.57
2022-11-18T15:52:10.943Z,5.05
2022-11-18T15:53:45.145Z,4.07
2022-11-18T15:55:18.024Z,4.38
2022-11-18T15:56:50.860Z,2.53
2022-11-18T15:58:23.599Z,5.25
2022-11-18T15:59:56.294Z,3.95
2022-11-18T16:01:30.898Z,3.35
2022-11-18T16:03:03.643Z,4.15
2022-11-18T16:04:36.361Z,3.63
2022-11-18T16:06:09.496Z,3.97
2022-11-18T16:07:42.343Z,10.90
2022-11-18T16:09:18.047Z,17.05
2022-11-18T16:11:13.863Z,14.07
2022-11-18T16:12:48.653Z,6.97
2022-11-18T16:14:23.044Z,5.05
2022-11-18T16:15:55.003Z,5.72
2022-11-18T16:17:27.739Z,4.53
2022-11-18T16:19:02.507Z,3.25
2022-11-18T16:20:35.641Z,3.88
2022-11-18T16:22:08.372Z,6.32
2022-11-18T16:23:41.283Z,4.53
2022-11-18T16:25:15.402Z,6.95
2022-11-18T16:26:48.443Z,5.00
2022-11-18T16:28:21.355Z,3.90
2022-11-18T16:29:54.102Z,4.25
2022-11-18T16:31:41.913Z,3.65
2022-11-18T16:33:16.222Z,6.45
2022-11-18T16:34:48.926Z,3.67
2022-11-18T16:36:26.891Z,2.45
2022-11-18T16:37:59.645Z,3.45
2022-11-18T16:39:32.543Z,3.25
2022-11-18T16:41:26.871Z,3.30
2022-11-18T16:42:59.642Z,6.70
2022-11-18T16:44:32.371Z,5.13
2022-11-18T16:46:09.157Z,3.83
2022-11-18T16:47:44.814Z,2.35
2022-11-18T16:49:19.677Z,4.22
2022-11-18T16:51:18.425Z,3.63
2022-11-18T16:52:51.116Z,4.20
2022-11-18T16:54:25.249Z,5.70
2022-11-18T16:56:03.543Z,3.92
2022-11-18T16:57:37.625Z,6.15
2022-11-18T16:59:14.539Z,3.17
2022-11-18T17:01:16.871Z,5.95
2022-11-18T17:02:39.962Z,7.85
2022-11-18T17:04:12.869Z,3.05
2022-11-18T17:05:45.570Z,5.32
2022-11-18T17:07:18.704Z,3.88
2022-11-18T17:08:51.702Z,3.88
2022-11-18T17:10:24.415Z,2.40
2022-11-18T17:11:58.406Z,3.53
2022-11-18T17:13:32.514Z,4.75
2022-11-18T17:15:05.954Z,5.18
2022-11-18T17:16:38.978Z,6.18
2022-11-18T17:18:11.716Z,4.97
2022-11-18T17:19:44.442Z,3.40
2022-11-18T17:21:18.944Z,4.65
2022-11-18T17:22:53.237Z,3.75
2022-11-18T17:24:26.977Z,5.22
2022-11-18T17:26:00.426Z,3.17
2022-11-18T17:27:33.210Z,3.70
2022-11-18T17:29:07.293Z,3.20
2022-11-18T17:30:40.003Z,3.28
2022-11-18T17:32:12.741Z,5.07
2022-11-18T17:33:46.358Z,5.47
2022-11-18T17:35:19.087Z,5.35
2022-11-18T17:36:51.822Z,6.78
2022-11-18T17:38:24.532Z,10.00
2022-11-18T17:39:57.261Z,10.23
2022-11-18T17:41:48.168Z,12.20
2022-11-18T17:43:20.882Z,13.23
2022-11-18T17:44:54.941Z,7.47
2022-11-18T17:46:29.302Z,5.07
2022-11-18T17:48:03.740Z,3.78
2022-11-18T17:49:36.695Z,3.15
2022-11-18T17:51:09.431Z,2.85
2022-11-18T17:52:42.159Z,2.75
2022-11-18T17:54:15.253Z,5.25
2022-11-18T17:55:48.337Z,6.13
2022-11-18T17:57:21.056Z,5.93
2022-11-18T17:58:53.797Z,6.45
2022-11-18T18:00:28.176Z,6.20
2022-11-18T18:02:01.209Z,6.57
2022-11-18T18:03:33.962Z,6.55
2022-11-18T18:05:07.599Z,5.45
2022-11-18T18:06:40.308Z,6.07
2022-11-18T18:08:13.051Z,4.03
2022-11-18T18:09:45.788Z,4.38
2022-11-18T18:11:20.243Z,3.38
2022-11-18T18:13:11.218Z,4.80
2022-11-18T18:14:43.919Z,4.82
2022-11-18T18:16:18.560Z,5.35
2022-11-18T18:17:51.359Z,5.75
2022-11-18T18:19:24.717Z,3.97
2022-11-18T18:21:01.775Z,5.15
2022-11-18T18:22:34.505Z,5.13
2022-11-18T18:24:08.018Z,5.07
2022-11-18T18:25:40.721Z,5.45
2022-11-18T18:27:13.435Z,6.07
2022-11-18T18:28:46.574Z,5.25
2022-11-18T18:30:19.533Z,5.70
2022-11-18T18:31:53.569Z,6.05
2022-11-18T18:33:26.312Z,5.07
2022-11-18T18:35:00.040Z,4.25
2022-11-18T18:36:33.048Z,5.20
2022-11-18T18:38:05.737Z,5.30
2022-11-18T18:39:38.475Z,4.95
2022-11-18T18:41:13.097Z,4.97
2022-11-18T18:42:45.814Z,6.30
2022-11-18T18:44:19.059Z,3.38
2022-11-18T18:46:09.581Z,5.97
2022-11-18T18:47:42.771Z,3.97
2022-11-18T18:49:20.159Z,3.35
2022-11-18T18:50:52.942Z,4.22
2022-11-18T18:52:25.675Z,4.57
2022-11-18T18:53:59.171Z,5.82
2022-11-18T18:55:31.914Z,4.85
2022-11-18T18:57:04.697Z,3.75
2022-11-18T18:58:36.627Z,5.65
2022-11-18T19:00:10.916Z,4.88
2022-11-18T19:01:43.680Z,7.00
2022-11-18T19:03:17.934Z,3.35
2022-11-18T19:04:50.641Z,4.88
2022-11-18T19:08:19.005Z,5.05
2022-11-18T19:09:51.715Z,3.55
2022-11-18T19:11:42.242Z,3.53
2022-11-18T19:13:15.025Z,4.35
2022-11-18T19:14:47.824Z,6.18
2022-11-18T19:16:20.530Z,5.32
2022-11-18T19:17:53.322Z,4.95
2022-11-18T19:19:46.118Z,4.82
2022-11-18T19:21:19.015Z,4.22
2022-11-18T19:22:51.907Z,3.97
2022-11-18T19:24:48.066Z,5.38
2022-11-18T19:26:17.570Z,5.38
2022-11-18T19:27:50.344Z,4.45
2022-11-18T19:29:25.776Z,2.85
2022-11-18T19:31:00.627Z,4.22
2022-11-18T19:32:36.324Z,4.57
2022-11-18T19:34:10.852Z,3.50
2022-11-18T19:35:45.112Z,3.40
2022-11-18T19:37:17.857Z,1.70
2022-11-18T19:38:51.414Z,2.10
2022-11-18T19:40:24.208Z,2.75
2022-11-18T19:41:56.934Z,2.15
2022-11-18T19:43:29.864Z,3.10
2022-11-18T19:45:02.770Z,3.25
2022-11-18T19:46:35.483Z,1.92
2022-11-18T19:48:08.224Z,1.88
2022-11-18T19:49:40.965Z,2.33
2022-11-18T19:51:16.400Z,2.08
2022-11-18T19:52:49.145Z,3.35
2022-11-18T19:54:21.930Z,3.30
2022-11-18T19:55:55.729Z,2.95
2022-11-18T19:57:28.431Z,4.20
2022-11-18T19:59:01.150Z,1.67
2022-11-18T20:00:33.862Z,4.32
2022-11-18T20:02:07.493Z,2.00
2022-11-18T20:03:40.321Z,1.92
2022-11-18T20:05:30.702Z,1.95
2022-11-18T20:07:05.085Z,1.77
2022-11-18T20:08:38.948Z,2.30
2022-11-18T20:10:11.671Z,2.88
2022-11-18T20:11:44.702Z,2.38
2022-11-18T20:13:17.582Z,1.88
2022-11-18T20:14:50.294Z,2.67
2022-11-18T20:16:24.079Z,6.05
2022-11-18T20:17:57.188Z,3.17
2022-11-18T20:19:29.917Z,2.83
2022-11-18T20:21:08.323Z,2.55
2022-11-18T20:22:42.410Z,2.75
2022-11-18T20:24:17.252Z,2.70
2022-11-18T20:25:49.993Z,2.17
2022-11-18T20:27:22.848Z,2.85
2022-11-18T20:28:57.783Z,1.73
2022-11-18T20:30:30.723Z,12.20
2022-11-18T20:32:03.435Z,8.52
2022-11-18T20:33:37.242Z,6.15
2022-11-18T20:35:10.379Z,2.95
2022-11-18T20:36:43.733Z,2.40
2022-11-18T20:38:17.853Z,2.10
2022-11-18T20:39:50.592Z,1.60
2022-11-18T20:41:24.243Z,2.47
2022-11-18T20:43:14.366Z,2.70
2022-11-18T20:44:47.100Z,1.90
2022-11-18T20:46:21.814Z,1.60
2022-11-18T20:47:54.694Z,2.75
2022-11-18T20:49:27.516Z,2.50
2022-11-18T20:51:03.754Z,2.70
2022-11-18T20:52:36.562Z,2.13
2022-11-18T20:54:11.587Z,3.83
2022-11-18T20:55:44.359Z,3.13
2022-11-18T20:57:17.214Z,1.92
2022-11-18T20:58:50.481Z,2.00
2022-11-18T21:00:23.430Z,1.63
2022-11-18T21:01:56.341Z,2.42
2022-11-18T21:03:29.080Z,1.60
2022-11-18T21:05:02.029Z,1.55
2022-11-18T21:06:34.775Z,1.50
2022-11-18T21:08:07.690Z,2.17
2022-11-18T21:09:41.743Z,2.03
2022-11-18T21:11:15.158Z,1.60
2022-11-18T21:13:05.324Z,2.28
2022-11-18T21:14:38.218Z,2.75